createdAt,value
2016-11-23T00:01:09.084Z,23
2016-11-23T00:06:13.178Z,23
2016-11-23T00:11:17.271Z,23
2016-11-23T00:16:22.027Z,23
2016-11-23T00:21:26.124Z,22.9
2016-11-23T00:26:30.549Z,22.9
2016-11-23T00:31:35.311Z,22.9
2016-11-23T00:36:39.732Z,22.9
2016-11-23T00:41:43.824Z,22.9
2016-11-23T00:46:48.248Z,22.9
2016-11-23T00:51:52.698Z,22.9
2016-11-23T00:56:56.794Z,22.9
2016-11-23T01:02:00.879Z,22.9
2016-11-23T01:07:05.302Z,22.9
2016-11-23T01:12:09.391Z,22.9
2016-11-23T01:17:13.809Z,22.9
2016-11-23T01:22:17.898Z,22.9
2016-11-23T01:27:21.986Z,22.8
2016-11-23T01:32:26.413Z,22.8
2016-11-23T01:37:30.503Z,22.8
2016-11-23T01:42:35.260Z,22.8
2016-11-23T01:47:39.347Z,22.8
2016-11-23T01:52:43.779Z,22.8
2016-11-23T01:57:47.871Z,22.8
2016-11-23T02:02:52.636Z,22.8
2016-11-23T02:07:56.737Z,22.8
2016-11-23T02:13:01.507Z,22.8
2016-11-23T02:18:05.603Z,22.8
2016-11-23T02:23:10.027Z,22.8
2016-11-23T02:28:14.784Z,22.8
2016-11-23T02:33:18.879Z,22.7
2016-11-23T02:38:23.307Z,22.8
2016-11-23T02:43:27.393Z,22.7
2016-11-23T02:48:31.479Z,22.7
2016-11-23T02:53:35.568Z,22.7
2016-11-23T02:58:40.001Z,22.7
2016-11-23T03:03:44.085Z,22.7
2016-11-23T03:08:48.174Z,22.7
2016-11-23T03:13:52.259Z,22.7
2016-11-23T03:18:56.676Z,22.7
2016-11-23T03:24:01.102Z,22.7
2016-11-23T03:29:05.197Z,22.7
2016-11-23T03:34:09.287Z,22.7
2016-11-23T03:39:13.374Z,22.7
2016-11-23T03:44:17.468Z,22.7
2016-11-23T03:49:21.555Z,22.6
2016-11-23T03:54:25.643Z,22.7
2016-11-23T03:59:29.732Z,22.6
2016-11-23T04:04:35.164Z,22.6
2016-11-23T04:09:39.582Z,22.6
2016-11-23T04:14:44.016Z,22.6
2016-11-23T04:19:48.443Z,22.6
2016-11-23T04:24:52.533Z,22.6
2016-11-23T04:29:56.954Z,22.6
2016-11-23T04:35:01.046Z,22.6
2016-11-23T04:40:05.472Z,22.6
2016-11-23T04:45:10.574Z,22.7
2016-11-23T04:50:15.000Z,22.7
2016-11-23T04:55:19.094Z,22.7
2016-11-23T05:00:23.519Z,22.7
2016-11-23T05:05:27.946Z,22.7
2016-11-23T05:10:32.043Z,22.7
2016-11-23T05:15:36.468Z,22.7
2016-11-23T05:20:40.563Z,22.8
2016-11-23T05:25:44.652Z,22.8
2016-11-23T05:30:48.753Z,22.7
2016-11-23T05:35:53.532Z,22.8
2016-11-23T05:40:57.638Z,22.8
2016-11-23T05:46:01.730Z,22.8
2016-11-23T05:51:05.818Z,22.8
2016-11-23T05:56:10.250Z,22.8
2016-11-23T06:01:14.672Z,22.8
2016-11-23T06:06:19.105Z,22.9
2016-11-23T06:11:23.196Z,22.9
2016-11-23T06:16:27.306Z,22.9
2016-11-23T06:21:31.735Z,23
2016-11-23T06:26:35.858Z,23
2016-11-23T06:31:40.279Z,23
2016-11-23T06:36:44.364Z,23
2016-11-23T06:41:48.792Z,23
2016-11-23T06:46:52.890Z,23
2016-11-23T06:51:56.978Z,23
2016-11-23T06:57:01.079Z,23
2016-11-23T07:02:05.164Z,23.1
2016-11-23T07:07:09.255Z,23
2016-11-23T07:12:13.346Z,23
2016-11-23T07:17:17.441Z,23
2016-11-23T07:22:21.529Z,23
2016-11-23T07:27:25.956Z,23.1
2016-11-23T07:32:30.049Z,23
2016-11-23T07:37:34.471Z,23
2016-11-23T07:42:39.227Z,23
2016-11-23T07:47:43.317Z,23
2016-11-23T07:52:47.408Z,23
2016-11-23T07:57:51.838Z,23
2016-11-23T08:02:56.604Z,23
2016-11-23T08:08:01.038Z,23
2016-11-23T08:13:05.126Z,23
2016-11-23T08:18:09.215Z,23
2016-11-23T08:23:13.317Z,23
2016-11-23T08:28:17.747Z,23
2016-11-23T08:33:21.838Z,23
2016-11-23T08:38:25.928Z,23
2016-11-23T08:43:30.366Z,23
2016-11-23T08:48:34.801Z,23
2016-11-23T08:53:38.898Z,23
2016-11-23T08:58:43.324Z,23
2016-11-23T09:03:47.419Z,23
2016-11-23T09:08:51.850Z,23
2016-11-23T09:13:56.619Z,23
2016-11-23T09:19:00.727Z,23
2016-11-23T09:24:04.826Z,23
2016-11-23T09:29:09.367Z,22.9
2016-11-23T09:34:13.798Z,22.9
2016-11-23T09:39:18.290Z,22.9
2016-11-23T09:44:22.394Z,22.9
2016-11-23T09:49:26.485Z,22.9
2016-11-23T09:54:31.437Z,22.9
2016-11-23T09:59:35.544Z,22.9
2016-11-23T10:04:40.000Z,23
2016-11-23T10:09:44.112Z,23
2016-11-23T10:14:48.223Z,23
2016-11-23T10:19:52.534Z,23
2016-11-23T10:24:57.023Z,23
2016-11-23T10:30:01.471Z,23
2016-11-23T10:35:05.903Z,23
2016-11-23T10:40:10.001Z,23.1
2016-11-23T10:45:14.438Z,23.1
2016-11-23T10:50:18.535Z,23
2016-11-23T10:55:22.969Z,23.1
2016-11-23T11:00:27.077Z,23.1
2016-11-23T11:05:31.170Z,23.1
2016-11-23T11:10:35.270Z,23.1
2016-11-23T11:15:40.036Z,23.1
2016-11-23T11:20:44.143Z,23.2
2016-11-23T11:25:48.232Z,23.2
2016-11-23T11:30:52.763Z,23.2
2016-11-23T11:35:57.191Z,23.2
2016-11-23T11:41:01.285Z,23.2
2016-11-23T11:46:05.379Z,23.2
2016-11-23T11:51:09.806Z,23.2
2016-11-23T11:56:17.361Z,23.2
2016-11-23T12:01:21.790Z,23.3
2016-11-23T12:06:25.888Z,23.3
2016-11-23T12:11:30.325Z,23.3
2016-11-23T12:16:34.760Z,23.3
2016-11-23T12:21:39.534Z,23.4
2016-11-23T12:26:43.993Z,23.4
2016-11-23T12:31:48.099Z,23.5
2016-11-23T12:36:52.535Z,23.5
2016-11-23T12:41:56.629Z,23.5
2016-11-23T12:47:01.074Z,23.5
2016-11-23T12:52:05.514Z,23.6
2016-11-23T12:57:09.620Z,23.6
2016-11-23T13:02:13.713Z,23.6
2016-11-23T13:07:17.811Z,23.6
2016-11-23T13:12:22.277Z,23.6
2016-11-23T13:17:26.374Z,23.7
2016-11-23T13:22:31.030Z,23.7
2016-11-23T13:27:35.135Z,23.7
2016-11-23T13:32:39.265Z,23.7
2016-11-23T13:37:43.370Z,23.7
2016-11-23T13:42:47.460Z,23.7
2016-11-23T13:47:51.556Z,23.7
2016-11-23T13:52:55.655Z,23.7
2016-11-23T13:58:00.082Z,23.8
2016-11-23T14:03:04.181Z,23.8
2016-11-23T14:08:08.279Z,23.8
2016-11-23T14:13:12.726Z,23.7
2016-11-23T14:18:17.172Z,23.8
2016-11-23T14:23:21.274Z,23.8
2016-11-23T14:28:25.379Z,23.8
2016-11-23T14:33:29.847Z,23.8
2016-11-23T14:38:34.350Z,23.7
2016-11-23T14:43:38.449Z,23.7
2016-11-23T14:48:42.876Z,23.7
2016-11-23T14:53:46.972Z,23.7
2016-11-23T14:58:51.867Z,23.7
2016-11-23T15:03:55.989Z,23.6
2016-11-23T15:09:00.764Z,23.6
2016-11-23T15:14:05.531Z,23.6
2016-11-23T15:19:09.872Z,23.6
2016-11-23T15:24:14.034Z,23.6
2016-11-23T15:29:18.141Z,23.6
2016-11-23T15:34:22.918Z,23.6
2016-11-23T15:39:27.346Z,23.6
2016-11-23T15:44:46.373Z,23.6
2016-11-23T15:49:50.476Z,23.6
2016-11-23T15:54:54.571Z,23.5
2016-11-23T15:59:59.202Z,23.5
2016-11-23T16:05:03.282Z,23.5
2016-11-23T16:10:07.723Z,23.5
2016-11-23T16:15:12.166Z,23.5
2016-11-23T16:20:16.614Z,23.5
2016-11-23T16:25:20.716Z,23.5
2016-11-23T16:30:25.149Z,23.5
2016-11-23T16:35:29.245Z,23.5
2016-11-23T16:40:33.740Z,23.5
2016-11-23T16:45:38.218Z,23.5
2016-11-23T16:50:42.313Z,23.5
2016-11-23T16:55:46.741Z,23.5
2016-11-23T17:00:51.178Z,23.5
2016-11-23T17:05:55.274Z,23.5
2016-11-23T17:10:59.390Z,23.5
2016-11-23T17:16:03.692Z,23.5
2016-11-23T17:21:07.805Z,23.5
2016-11-23T17:26:12.240Z,23.5
2016-11-23T17:31:16.346Z,23.5
2016-11-23T17:36:20.463Z,23.5
2016-11-23T17:41:24.891Z,23.5
2016-11-23T17:46:28.986Z,23.5
2016-11-23T17:51:33.071Z,23.5
2016-11-23T17:56:37.504Z,23.5
2016-11-23T18:01:41.602Z,23.5
2016-11-23T18:06:46.032Z,23.5
2016-11-23T18:11:50.460Z,23.5
2016-11-23T18:16:54.579Z,23.5
2016-11-23T18:21:59.012Z,23.5
2016-11-23T18:27:03.775Z,23.5
2016-11-23T18:32:07.904Z,23.5
2016-11-23T18:37:12.316Z,23.5
2016-11-23T18:42:16.412Z,23.5
2016-11-23T18:47:20.827Z,23.5
2016-11-23T18:52:25.595Z,23.5
2016-11-23T18:57:30.357Z,23.5
2016-11-23T19:02:34.450Z,23.5
2016-11-23T19:07:38.545Z,23.5
2016-11-23T19:12:42.977Z,23.5
2016-11-23T19:17:47.073Z,23.5
2016-11-23T19:22:51.167Z,23.5
2016-11-23T19:27:55.595Z,23.6
2016-11-23T19:32:59.691Z,23.6
2016-11-23T19:38:03.787Z,23.5
2016-11-23T19:43:07.872Z,23.5
2016-11-23T19:48:11.965Z,23.5
2016-11-23T19:53:16.396Z,23.5
2016-11-23T19:58:20.487Z,23.5
2016-11-23T20:03:24.919Z,23.5
2016-11-23T20:08:30.248Z,23.5
2016-11-23T20:13:34.353Z,23.5
2016-11-23T20:18:38.788Z,23.4
2016-11-23T20:23:42.882Z,23.4
2016-11-23T20:28:46.977Z,23.4
2016-11-23T20:33:51.408Z,23.4
2016-11-23T20:38:55.502Z,23.4
2016-11-23T20:43:59.597Z,23.4
2016-11-23T20:49:04.374Z,23.4
2016-11-23T20:54:08.674Z,23.4
2016-11-23T20:59:13.115Z,23.4
2016-11-23T21:04:17.902Z,23.4
2016-11-23T21:09:22.375Z,23.4
2016-11-23T21:14:26.563Z,23.4
2016-11-23T21:19:30.999Z,23.3
2016-11-23T21:24:35.092Z,23.3
2016-11-23T21:29:39.871Z,23.3
2016-11-23T21:34:44.300Z,23.3
2016-11-23T21:39:48.616Z,23.3
2016-11-23T21:44:52.716Z,23.3
2016-11-23T21:49:57.032Z,23.3
2016-11-23T21:55:01.127Z,23.3
2016-11-23T22:00:05.901Z,23.2
2016-11-23T22:05:10.337Z,23.2
2016-11-23T22:10:14.761Z,23.2
2016-11-23T22:15:18.894Z,23.2
2016-11-23T22:20:22.982Z,23.2
2016-11-23T22:25:27.072Z,23.2
2016-11-23T22:30:31.831Z,23.2
2016-11-23T22:35:36.259Z,23.1
2016-11-23T22:40:40.350Z,23.1
2016-11-23T22:45:44.456Z,23.1
2016-11-23T22:50:48.888Z,23.1
2016-11-23T22:55:52.978Z,23.1
2016-11-23T23:00:57.073Z,23.1
2016-11-23T23:06:01.160Z,23.1
2016-11-23T23:11:05.261Z,23
2016-11-23T23:16:09.350Z,23
2016-11-23T23:21:13.449Z,23
2016-11-23T23:26:17.543Z,23
2016-11-23T23:31:21.968Z,23
2016-11-23T23:36:26.398Z,23
2016-11-23T23:41:30.836Z,22.9
2016-11-23T23:46:34.925Z,22.9
2016-11-23T23:51:39.023Z,22.9
2016-11-23T23:56:43.119Z,22.9
